createdAt,value
2019-04-30T00:00:13.000Z,21.7
2019-04-30T00:01:17.000Z,21.6
2019-04-30T00:03:17.000Z,21.6
2019-04-30T00:05:13.000Z,21.5
2019-04-30T00:06:14.000Z,21.5
2019-04-30T00:07:17.000Z,21.4
2019-04-30T00:09:13.000Z,21.4
2019-04-30T00:10:14.000Z,21.4
2019-04-30T00:11:17.000Z,21.5
2019-04-30T00:13:13.000Z,21.5
2019-04-30T00:14:14.000Z,21.5
2019-04-30T00:15:17.000Z,21.5
2019-04-30T00:17:13.000Z,21.5
2019-04-30T00:19:13.000Z,21.4
2019-04-30T00:20:16.000Z,21.4
2019-04-30T00:22:15.000Z,21.4
2019-04-30T00:23:17.000Z,21.4
2019-04-30T00:25:13.000Z,21.4
2019-04-30T00:26:16.000Z,21.3
2019-04-30T00:28:14.000Z,21.4
2019-04-30T00:30:14.000Z,21.5
2019-04-30T00:32:15.000Z,21.5
2019-04-30T00:34:14.000Z,21.5
2019-04-30T00:35:15.000Z,21.6
2019-04-30T00:36:16.000Z,21.5
2019-04-30T00:38:14.000Z,21.5
2019-04-30T00:39:15.000Z,21.5
2019-04-30T00:41:14.000Z,21.5
2019-04-30T00:43:14.000Z,21.6
2019-04-30T00:45:14.000Z,21.6
2019-04-30T00:47:14.000Z,21.6
2019-04-30T00:49:21.000Z,21.6
2019-04-30T00:51:13.000Z,21.5
2019-04-30T00:52:14.000Z,21.5
2019-04-30T00:53:15.000Z,21.4
2019-04-30T00:55:14.000Z,21.5
2019-04-30T00:57:13.000Z,21.6
2019-04-30T00:58:22.000Z,21.6
2019-04-30T01:00:13.000Z,21.5
2019-04-30T01:01:14.000Z,21.4
2019-04-30T01:03:14.000Z,21.3
2019-04-30T01:05:14.000Z,21.4
2019-04-30T01:07:14.000Z,21.4
2019-04-30T01:09:14.000Z,21.5
2019-04-30T01:11:14.000Z,21.5
2019-04-30T01:13:13.000Z,21.5
2019-04-30T01:14:28.000Z,21.5
2019-04-30T01:16:28.000Z,21.5
2019-04-30T01:17:28.000Z,21.5
2019-04-30T01:19:13.000Z,21.6
2019-04-30T01:20:28.000Z,21.6
2019-04-30T01:22:28.000Z,21.6
2019-04-30T01:24:28.000Z,21.6
2019-04-30T01:26:28.000Z,21.6
2019-04-30T01:28:13.000Z,21.5
2019-04-30T01:29:28.000Z,21.5
2019-04-30T01:31:28.000Z,21.5
2019-04-30T01:33:28.000Z,21.5
2019-04-30T01:34:28.000Z,21.4
2019-04-30T01:35:28.000Z,21.5
2019-04-30T01:37:28.000Z,21.5
2019-04-30T01:39:28.000Z,21.6
2019-04-30T01:41:28.000Z,21.7
2019-04-30T01:43:28.000Z,21.7
2019-04-30T01:45:28.000Z,21.6
2019-04-30T01:47:28.000Z,21.6
2019-04-30T01:49:28.000Z,21.6
2019-04-30T01:51:19.000Z,21.6
2019-04-30T01:52:28.000Z,21.5
2019-04-30T01:53:28.000Z,21.5
2019-04-30T01:55:28.000Z,21.6
2019-04-30T01:57:28.000Z,21.7
2019-04-30T01:59:28.000Z,21.8
2019-04-30T02:00:28.000Z,21.9
2019-04-30T02:02:28.000Z,22
2019-04-30T02:03:28.000Z,22
2019-04-30T02:05:28.000Z,22.1
2019-04-30T02:06:28.000Z,22.2
2019-04-30T02:08:28.000Z,22.4
2019-04-30T02:09:28.000Z,22.4
2019-04-30T02:10:29.000Z,22.5
2019-04-30T02:12:29.000Z,22.4
2019-04-30T02:14:29.000Z,22.3
2019-04-30T02:15:29.000Z,22.3
2019-04-30T02:16:29.000Z,22.3
2019-04-30T02:18:29.000Z,22.5
2019-04-30T02:20:13.000Z,22.6
2019-04-30T02:21:29.000Z,22.6
2019-04-30T02:23:29.000Z,22.4
2019-04-30T02:25:29.000Z,22.4
2019-04-30T02:27:29.000Z,22.3
2019-04-30T02:28:29.000Z,22.2
2019-04-30T02:29:29.000Z,22.3
2019-04-30T02:30:29.000Z,22.3
2019-04-30T02:32:29.000Z,22.2
2019-04-30T02:34:29.000Z,21.9
2019-04-30T02:35:29.000Z,21.8
2019-04-30T02:36:29.000Z,21.8
2019-04-30T02:38:29.000Z,21.8
2019-04-30T02:40:29.000Z,21.7
2019-04-30T02:42:29.000Z,21.6
2019-04-30T02:43:29.000Z,21.6
2019-04-30T02:45:29.000Z,21.6
2019-04-30T02:47:29.000Z,21.5
2019-04-30T02:49:29.000Z,21.5
2019-04-30T02:51:29.000Z,21.4
2019-04-30T02:53:29.000Z,21.5
2019-04-30T02:54:29.000Z,21.6
2019-04-30T02:56:29.000Z,21.8
2019-04-30T02:58:13.000Z,22
2019-04-30T02:59:29.000Z,22.1
2019-04-30T03:01:29.000Z,22.2
2019-04-30T03:03:29.000Z,22.2
2019-04-30T03:04:29.000Z,22.2
2019-04-30T03:05:29.000Z,22.4
2019-04-30T03:07:13.000Z,22.4
2019-04-30T03:08:29.000Z,22.5
2019-04-30T03:09:29.000Z,22.5
2019-04-30T03:11:29.000Z,22.5
2019-04-30T03:13:29.000Z,22.4
2019-04-30T03:15:13.000Z,22.4
2019-04-30T03:16:29.000Z,22.4
2019-04-30T03:17:29.000Z,22.3
2019-04-30T03:18:29.000Z,22.3
2019-04-30T03:20:14.000Z,22.2
2019-04-30T03:21:29.000Z,22.1
2019-04-30T03:23:13.000Z,22
2019-04-30T03:24:29.000Z,22
2019-04-30T03:26:29.000Z,22.1
2019-04-30T03:27:29.000Z,22.2
2019-04-30T03:29:29.000Z,22.3
2019-04-30T03:30:29.000Z,22.3
2019-04-30T03:31:29.000Z,22.3
2019-04-30T03:33:29.000Z,22.1
2019-04-30T03:35:29.000Z,21.9
2019-04-30T03:37:29.000Z,21.8
2019-04-30T03:39:29.000Z,21.9
2019-04-30T03:41:29.000Z,21.9
2019-04-30T03:43:29.000Z,21.8
2019-04-30T03:45:29.000Z,21.8
2019-04-30T03:46:29.000Z,21.7
2019-04-30T03:47:29.000Z,21.7
2019-04-30T03:49:29.000Z,21.7
2019-04-30T03:50:29.000Z,21.7
2019-04-30T03:52:29.000Z,21.8
2019-04-30T03:53:29.000Z,21.8
2019-04-30T03:55:29.000Z,21.9
2019-04-30T03:57:29.000Z,21.9
2019-04-30T03:59:29.000Z,21.6
2019-04-30T04:01:29.000Z,21.5
2019-04-30T04:02:29.000Z,21.5
2019-04-30T04:04:29.000Z,21.6
2019-04-30T04:06:29.000Z,21.5
2019-04-30T04:07:29.000Z,21.6
2019-04-30T04:09:29.000Z,21.6
2019-04-30T04:11:29.000Z,21.6
2019-04-30T04:13:29.000Z,21.6
2019-04-30T04:15:29.000Z,21.6
2019-04-30T04:17:29.000Z,21.6
2019-04-30T04:19:28.000Z,21.4
2019-04-30T04:21:13.000Z,21.3
2019-04-30T04:22:28.000Z,21.3
2019-04-30T04:24:28.000Z,21.3
2019-04-30T04:26:28.000Z,21.5
2019-04-30T04:28:13.000Z,21.8
2019-04-30T04:29:28.000Z,21.9
2019-04-30T04:30:28.000Z,22.1
2019-04-30T04:32:28.000Z,22.4
2019-04-30T04:34:28.000Z,22.5
2019-04-30T04:36:28.000Z,22.6
2019-04-30T04:38:28.000Z,22.7
2019-04-30T04:40:28.000Z,22.8
2019-04-30T04:42:28.000Z,22.8
2019-04-30T04:44:28.000Z,22.9
2019-04-30T04:46:28.000Z,23.1
2019-04-30T04:48:28.000Z,23.1
2019-04-30T04:49:28.000Z,23.2
2019-04-30T04:51:13.000Z,23.3
2019-04-30T04:52:28.000Z,23.3
2019-04-30T04:54:28.000Z,23.4
2019-04-30T04:56:28.000Z,23.4
2019-04-30T04:58:28.000Z,23.5
2019-04-30T05:00:28.000Z,23.5
2019-04-30T05:01:28.000Z,23.7
2019-04-30T05:03:13.000Z,24
2019-04-30T05:04:28.000Z,24.1
2019-04-30T05:05:28.000Z,24.2
2019-04-30T05:07:28.000Z,24.3
2019-04-30T05:09:28.000Z,24.5
2019-04-30T05:11:28.000Z,24.6
2019-04-30T05:13:28.000Z,24.5
2019-04-30T05:14:28.000Z,24.6
2019-04-30T05:16:28.000Z,24.7
2019-04-30T05:18:28.000Z,24.8
2019-04-30T05:19:28.000Z,24.9
2019-04-30T05:21:28.000Z,25.1
2019-04-30T05:23:28.000Z,25.1
2019-04-30T05:24:28.000Z,25.1
2019-04-30T05:26:28.000Z,25.2
2019-04-30T05:27:28.000Z,25.3
2019-04-30T05:29:28.000Z,25.3
2019-04-30T05:31:28.000Z,25.4
2019-04-30T05:32:28.000Z,25.4
2019-04-30T05:34:28.000Z,25.6
2019-04-30T05:36:28.000Z,25.6
2019-04-30T05:37:28.000Z,25.6
2019-04-30T05:39:28.000Z,25.8
2019-04-30T05:41:28.000Z,25.9
2019-04-30T05:42:28.000Z,25.9
2019-04-30T05:43:28.000Z,26
2019-04-30T05:44:28.000Z,26.1
2019-04-30T05:45:28.000Z,26.1
2019-04-30T05:47:13.000Z,26.2
2019-04-30T05:48:28.000Z,26.1
2019-04-30T05:49:28.000Z,26.2
2019-04-30T05:50:28.000Z,26.2
2019-04-30T05:52:28.000Z,26.3
2019-04-30T05:54:28.000Z,26.3
2019-04-30T05:56:28.000Z,26.3
2019-04-30T05:58:28.000Z,26.1
2019-04-30T06:00:13.000Z,26.1
2019-04-30T06:01:28.000Z,26
2019-04-30T06:03:13.000Z,26
2019-04-30T06:04:28.000Z,25.9
2019-04-30T06:05:28.000Z,25.9
2019-04-30T06:06:28.000Z,26
2019-04-30T06:07:28.000Z,26.1
2019-04-30T06:09:13.000Z,26.1
2019-04-30T06:10:28.000Z,26.1
2019-04-30T06:12:28.000Z,26.1
2019-04-30T06:14:28.000Z,26
2019-04-30T06:16:28.000Z,26
2019-04-30T06:17:28.000Z,26.1
2019-04-30T06:19:13.000Z,26.2
2019-04-30T06:20:13.000Z,26.3
2019-04-30T06:21:28.000Z,26.3
2019-04-30T06:22:28.000Z,26.3
2019-04-30T06:23:28.000Z,26.5
2019-04-30T06:24:28.000Z,26.6
2019-04-30T06:26:28.000Z,26.7
2019-04-30T06:27:28.000Z,26.8
2019-04-30T06:29:29.000Z,27
2019-04-30T06:30:29.000Z,27.1
2019-04-30T06:32:29.000Z,27.2
2019-04-30T06:34:29.000Z,27.3
2019-04-30T06:35:29.000Z,27.3
2019-04-30T06:37:29.000Z,27.4
2019-04-30T06:39:29.000Z,27.3
2019-04-30T06:40:29.000Z,27.3
2019-04-30T06:42:29.000Z,27.4
2019-04-30T06:43:29.000Z,27.5
2019-04-30T06:44:29.000Z,27.5
2019-04-30T06:46:29.000Z,27.6
2019-04-30T06:48:29.000Z,27.6
2019-04-30T06:50:29.000Z,27.5
2019-04-30T06:51:29.000Z,27.6
2019-04-30T06:53:29.000Z,27.5
2019-04-30T06:54:29.000Z,27.5
2019-04-30T06:56:29.000Z,27.5
2019-04-30T06:58:14.000Z,27.5
2019-04-30T07:41:18.000Z,26.9
2019-04-30T07:42:19.000Z,27
2019-04-30T07:44:18.000Z,27.2
2019-04-30T07:45:19.000Z,27.3
2019-04-30T07:47:19.000Z,27.6
2019-04-30T07:49:18.000Z,27.9
2019-04-30T07:50:21.000Z,28
2019-04-30T07:52:18.000Z,28.1
2019-04-30T07:53:18.000Z,28.1
2019-04-30T07:55:18.000Z,28.3
2019-04-30T07:56:18.000Z,28.3
2019-04-30T07:57:19.000Z,28.2
2019-04-30T07:59:20.000Z,28.1
2019-04-30T08:01:19.000Z,28.1
2019-04-30T08:03:20.000Z,28
2019-04-30T08:05:18.000Z,27.9
2019-04-30T08:06:21.000Z,27.8
2019-04-30T08:08:18.000Z,27.6
2019-04-30T08:09:21.000Z,27.5
2019-04-30T08:11:18.000Z,27.5
2019-04-30T08:12:29.000Z,27.4
2019-04-30T08:14:18.000Z,27
2019-04-30T08:15:19.000Z,27.3
2019-04-30T08:16:33.000Z,27.4
2019-04-30T08:18:33.000Z,27.5
2019-04-30T08:20:18.000Z,27.6
2019-04-30T08:21:19.000Z,27.6
2019-04-30T08:23:33.000Z,27.6
2019-04-30T08:25:18.000Z,27.5
2019-04-30T09:08:39.000Z,26.8
2019-04-30T09:09:54.000Z,26.9
2019-04-30T09:10:54.000Z,27.1
2019-04-30T09:12:54.000Z,27.4
2019-04-30T09:13:54.000Z,27.5
2019-04-30T09:15:54.000Z,27.8
2019-04-30T09:17:54.000Z,28
2019-04-30T09:18:54.000Z,28
2019-04-30T09:19:54.000Z,28
2019-04-30T09:21:39.000Z,28.2
2019-04-30T09:22:54.000Z,28.2
2019-04-30T09:24:54.000Z,28.2
2019-04-30T09:25:54.000Z,28.2
2019-04-30T09:27:54.000Z,28.4
2019-04-30T09:29:54.000Z,28.4
2019-04-30T09:31:39.000Z,28.4
2019-04-30T09:32:54.000Z,28.3
2019-04-30T09:34:39.000Z,28.2
2019-04-30T09:35:54.000Z,28.2
2019-04-30T09:37:40.000Z,28.3
2019-04-30T09:38:55.000Z,28.2
2019-04-30T09:40:40.000Z,28.2
2019-04-30T09:41:41.000Z,28.1
2019-04-30T09:42:55.000Z,28
2019-04-30T09:44:55.000Z,28
2019-04-30T09:45:55.000Z,28
2019-04-30T09:47:40.000Z,28
2019-04-30T09:48:55.000Z,27.9
2019-04-30T09:50:39.000Z,27.9
2019-04-30T09:51:40.000Z,27.8
2019-04-30T09:52:40.000Z,27.8
2019-04-30T09:54:40.000Z,27.6
2019-04-30T09:56:39.000Z,27.4
2019-04-30T09:57:55.000Z,27.4
2019-04-30T09:59:55.000Z,27.5
2019-04-30T10:00:55.000Z,27.6
2019-04-30T10:02:39.000Z,27.9
2019-04-30T10:03:41.000Z,28
2019-04-30T10:05:55.000Z,27.8
2019-04-30T10:07:39.000Z,27.9
2019-04-30T10:08:40.000Z,27.9
2019-04-30T10:09:55.000Z,27.8
2019-04-30T10:10:55.000Z,27.8
2019-04-30T10:11:55.000Z,27.9
2019-04-30T10:12:55.000Z,28.1
2019-04-30T10:13:55.000Z,28.2
2019-04-30T10:15:40.000Z,28.3
2019-04-30T10:16:55.000Z,28.3
2019-04-30T10:18:55.000Z,28.3
2019-04-30T10:19:55.000Z,28.4
2019-04-30T10:20:55.000Z,28.5
2019-04-30T10:21:55.000Z,28.5
2019-04-30T10:23:55.000Z,28.7
2019-04-30T10:25:55.000Z,28.5
2019-04-30T10:26:55.000Z,28.5
2019-04-30T10:28:55.000Z,28.5
2019-04-30T10:30:55.000Z,28.4
2019-04-30T10:31:55.000Z,28.4
2019-04-30T10:32:55.000Z,28.5
2019-04-30T10:33:55.000Z,28.5
2019-04-30T10:35:55.000Z,28.5
2019-04-30T10:37:55.000Z,28.3
2019-04-30T10:39:55.000Z,27.9
2019-04-30T10:40:55.000Z,27.8
2019-04-30T10:42:54.000Z,27.6
2019-04-30T10:44:54.000Z,27.5
2019-04-30T10:45:54.000Z,27.5
2019-04-30T10:47:39.000Z,27.5
2019-04-30T10:48:54.000Z,27.6
2019-04-30T10:50:39.000Z,27.7
2019-04-30T10:51:54.000Z,27.5
2019-04-30T10:52:54.000Z,27.5
2019-04-30T10:54:54.000Z,27.5
2019-04-30T10:56:54.000Z,27.5
2019-04-30T10:57:54.000Z,27.5
2019-04-30T10:59:54.000Z,27.6
2019-04-30T11:01:54.000Z,27.7
2019-04-30T11:03:39.000Z,27.9
2019-04-30T11:04:54.000Z,27.8
2019-04-30T11:06:54.000Z,27.8
2019-04-30T11:07:54.000Z,27.9
2019-04-30T11:08:54.000Z,28
2019-04-30T11:10:54.000Z,28.3
2019-04-30T11:12:54.000Z,28.4
2019-04-30T11:14:39.000Z,28.5
2019-04-30T11:15:54.000Z,28.5
2019-04-30T11:17:39.000Z,28.4
2019-04-30T11:18:40.000Z,28.4
2019-04-30T11:20:39.000Z,28.2
2019-04-30T11:21:40.000Z,28.1
2019-04-30T11:23:40.000Z,27.8
2019-04-30T11:25:41.000Z,27.5
2019-04-30T11:26:41.000Z,27.5
2019-04-30T11:28:39.000Z,27.4
2019-04-30T11:29:40.000Z,27.4
2019-04-30T11:30:40.000Z,27.4
2019-04-30T11:32:40.000Z,27.3
2019-04-30T11:34:54.000Z,27.2
2019-04-30T11:36:54.000Z,27.4
2019-04-30T11:38:54.000Z,27.7
2019-04-30T11:40:54.000Z,27.9
2019-04-30T11:42:54.000Z,28.2
2019-04-30T11:43:54.000Z,28.3
2019-04-30T11:45:54.000Z,28.5
2019-04-30T11:46:54.000Z,28.5
2019-04-30T11:48:39.000Z,28.6
2019-04-30T11:49:54.000Z,28.6
2019-04-30T11:51:54.000Z,28.7
2019-04-30T11:53:54.000Z,28.7
2019-04-30T11:55:54.000Z,28.5
2019-04-30T11:57:54.000Z,28.4
2019-04-30T11:59:54.000Z,28.3
2019-04-30T12:01:54.000Z,28.2
2019-04-30T12:02:54.000Z,28.2
2019-04-30T12:04:54.000Z,28.1
2019-04-30T12:05:54.000Z,28.1
2019-04-30T12:06:54.000Z,28.2
2019-04-30T12:08:54.000Z,28.3
2019-04-30T12:09:54.000Z,28.3
2019-04-30T12:10:54.000Z,28.3
2019-04-30T12:12:54.000Z,28.3
2019-04-30T12:13:54.000Z,28.4
2019-04-30T12:15:39.000Z,28.5
2019-04-30T12:16:54.000Z,28.6
2019-04-30T12:17:54.000Z,28.6
2019-04-30T12:19:54.000Z,28.8
2019-04-30T12:20:54.000Z,28.8
2019-04-30T12:22:54.000Z,28.7
2019-04-30T12:24:54.000Z,28.5
2019-04-30T12:26:54.000Z,28.1
2019-04-30T12:27:54.000Z,28
2019-04-30T12:29:54.000Z,28.1
2019-04-30T12:31:54.000Z,28.3
2019-04-30T12:32:54.000Z,28.4
2019-04-30T12:34:54.000Z,28.7
2019-04-30T12:36:54.000Z,28.8
2019-04-30T12:38:54.000Z,28.8
2019-04-30T12:39:54.000Z,28.8
2019-04-30T12:41:39.000Z,28.8
2019-04-30T12:42:54.000Z,28.8
2019-04-30T12:43:54.000Z,28.9
2019-04-30T12:44:54.000Z,29
2019-04-30T12:46:39.000Z,29.1
2019-04-30T12:47:54.000Z,29.1
2019-04-30T12:49:54.000Z,29.1
2019-04-30T12:50:54.000Z,29.1
2019-04-30T12:52:54.000Z,29.1
2019-04-30T12:53:55.000Z,29.2
2019-04-30T12:55:54.000Z,29.2
2019-04-30T12:56:54.000Z,29.2
2019-04-30T12:58:54.000Z,29.1
2019-04-30T12:59:54.000Z,29.1
2019-04-30T13:00:55.000Z,29.1
2019-04-30T13:02:54.000Z,29.3
2019-04-30T13:03:54.000Z,29.4
2019-04-30T13:05:55.000Z,29.4
2019-04-30T13:07:40.000Z,29.1
2019-04-30T13:08:40.000Z,29
2019-04-30T13:09:41.000Z,28.8
2019-04-30T13:11:40.000Z,28.4
2019-04-30T13:12:40.000Z,28.2
2019-04-30T13:13:41.000Z,28.1
2019-04-30T13:14:52.000Z,28
2019-04-30T13:15:54.000Z,28
2019-04-30T13:16:54.000Z,28.1
2019-04-30T13:17:55.000Z,28.3
2019-04-30T13:19:39.000Z,28.7
2019-04-30T13:20:40.000Z,28.8
2019-04-30T13:21:55.000Z,28.8
2019-04-30T13:23:54.000Z,28.9
2019-04-30T13:25:50.000Z,28.9
2019-04-30T13:26:54.000Z,28.8
2019-04-30T13:27:55.000Z,28.8
2019-04-30T13:29:55.000Z,28.9
2019-04-30T13:31:40.000Z,29
2019-04-30T13:32:54.000Z,29
2019-04-30T13:34:54.000Z,29
2019-04-30T13:35:55.000Z,29
2019-04-30T13:37:54.000Z,29
2019-04-30T13:39:39.000Z,29
2019-04-30T13:40:54.000Z,29
2019-04-30T13:42:55.000Z,29
2019-04-30T13:44:55.000Z,29
2019-04-30T13:46:55.000Z,29.1
2019-04-30T13:48:55.000Z,29.2
2019-04-30T13:50:55.000Z,29.2
2019-04-30T13:52:54.000Z,29.2
2019-04-30T13:54:55.000Z,29.3
2019-04-30T13:56:55.000Z,29.3
2019-04-30T13:57:55.000Z,29.3
2019-04-30T13:59:40.000Z,29.4
2019-04-30T14:00:55.000Z,29.5
2019-04-30T14:02:55.000Z,29.4
2019-04-30T14:04:55.000Z,29.3
2019-04-30T14:06:55.000Z,29.4
2019-04-30T14:07:55.000Z,29.4
2019-04-30T14:09:55.000Z,29.5
2019-04-30T14:10:55.000Z,29.6
2019-04-30T14:12:55.000Z,29.6
2019-04-30T14:14:55.000Z,29.7
2019-04-30T14:16:55.000Z,29.6
2019-04-30T14:17:55.000Z,29.6
2019-04-30T14:19:55.000Z,29.6
2019-04-30T14:20:55.000Z,29.6
2019-04-30T14:22:55.000Z,29.6
2019-04-30T14:24:55.000Z,29.4
2019-04-30T14:25:55.000Z,29.4
2019-04-30T14:27:40.000Z,29.1
2019-04-30T14:28:55.000Z,28.9
2019-04-30T14:29:55.000Z,28.8
2019-04-30T14:30:55.000Z,28.8
2019-04-30T14:32:55.000Z,29
2019-04-30T14:34:55.000Z,29
2019-04-30T14:36:55.000Z,29.1
2019-04-30T14:37:55.000Z,29.2
2019-04-30T14:39:40.000Z,29.3
2019-04-30T14:41:41.000Z,29.2
2019-04-30T14:43:40.000Z,28.8
2019-04-30T14:44:41.000Z,28.6
2019-04-30T14:46:40.000Z,28.3
2019-04-30T14:48:41.000Z,28
2019-04-30T14:50:55.000Z,27.7
2019-04-30T14:51:55.000Z,27.7
2019-04-30T14:52:55.000Z,27.8
2019-04-30T14:54:55.000Z,28
2019-04-30T14:56:55.000Z,28.1
2019-04-30T14:57:55.000Z,28.1
2019-04-30T14:58:55.000Z,28.1
2019-04-30T14:59:55.000Z,28.2
2019-04-30T15:01:54.000Z,28.2
2019-04-30T15:03:55.000Z,28.2
2019-04-30T15:05:40.000Z,28.2
2019-04-30T15:06:54.000Z,28
2019-04-30T15:07:54.000Z,27.9
2019-04-30T15:08:54.000Z,27.9
2019-04-30T15:10:54.000Z,28
2019-04-30T15:12:54.000Z,27.9
2019-04-30T15:14:40.000Z,28
2019-04-30T15:15:54.000Z,28
2019-04-30T15:16:54.000Z,28
2019-04-30T15:18:54.000Z,28.1
2019-04-30T15:23:55.000Z,27.8
2019-04-30T15:25:10.000Z,27.7
2019-04-30T15:26:55.000Z,27.7
2019-04-30T15:28:10.000Z,27.7
2019-04-30T15:29:55.000Z,27.7
2019-04-30T15:31:10.000Z,27.7
2019-04-30T15:32:10.000Z,27.8
2019-04-30T15:33:55.000Z,28
2019-04-30T15:35:10.000Z,28
2019-04-30T15:37:10.000Z,28.1
2019-04-30T15:39:10.000Z,28.1
2019-04-30T15:41:10.000Z,28.2
2019-04-30T15:42:10.000Z,28.3
2019-04-30T15:43:10.000Z,28.4
2019-04-30T15:44:10.000Z,28.5
2019-04-30T15:45:55.000Z,28.7
2019-04-30T15:47:10.000Z,28.6
2019-04-30T15:48:10.000Z,28.7
2019-04-30T15:50:10.000Z,28.8
2019-04-30T15:52:10.000Z,28.8
2019-04-30T15:54:10.000Z,28.8
2019-04-30T15:56:10.000Z,28.7
2019-04-30T15:58:10.000Z,28.7
2019-04-30T16:00:10.000Z,28.7
2019-04-30T16:01:10.000Z,28.7
2019-04-30T16:02:55.000Z,28.8
2019-04-30T16:04:10.000Z,28.7
2019-04-30T16:05:10.000Z,28.7
2019-04-30T16:06:10.000Z,28.8
2019-04-30T16:07:54.000Z,28.9
2019-04-30T16:09:10.000Z,28.9
2019-04-30T16:10:10.000Z,29
2019-04-30T16:12:10.000Z,29
2019-04-30T16:13:10.000Z,29
2019-04-30T16:15:10.000Z,29
2019-04-30T16:16:10.000Z,29
2019-04-30T16:18:10.000Z,28.9
2019-04-30T16:20:10.000Z,28.9
2019-04-30T16:21:10.000Z,28.9
2019-04-30T16:22:10.000Z,28.9
2019-04-30T16:24:10.000Z,29
2019-04-30T16:26:10.000Z,29
2019-04-30T16:28:10.000Z,28.9
2019-04-30T16:29:10.000Z,28.8
2019-04-30T16:31:10.000Z,28.9
2019-04-30T16:33:10.000Z,28.8
2019-04-30T16:34:10.000Z,28.8
2019-04-30T16:35:54.000Z,28.9
2019-04-30T16:37:10.000Z,28.8
2019-04-30T16:38:10.000Z,28.8
2019-04-30T16:39:10.000Z,28.9
2019-04-30T16:41:10.000Z,28.9
2019-04-30T16:43:10.000Z,28.9
2019-04-30T16:44:54.000Z,28.9
2019-04-30T16:46:10.000Z,28.8
2019-04-30T16:47:10.000Z,28.8
2019-04-30T16:49:10.000Z,28.8
2019-04-30T16:50:10.000Z,28.7
2019-04-30T16:51:10.000Z,28.7
2019-04-30T16:53:10.000Z,28.7
2019-04-30T16:55:10.000Z,28.7
2019-04-30T16:56:10.000Z,28.7
2019-04-30T16:58:10.000Z,28.7
2019-04-30T16:59:10.000Z,28.7
2019-04-30T17:00:10.000Z,28.8
2019-04-30T17:01:55.000Z,28.9
2019-04-30T17:45:18.000Z,26.6
2019-04-30T17:46:20.000Z,26.7
2019-04-30T17:48:33.000Z,26.9
2019-04-30T17:50:18.000Z,27.1
2019-04-30T17:51:33.000Z,27.2
2019-04-30T17:52:33.000Z,27.4
2019-04-30T17:54:33.000Z,27.7
2019-04-30T17:56:33.000Z,27.8
2019-04-30T17:58:18.000Z,27.9
2019-04-30T17:59:33.000Z,27.9
2019-04-30T18:01:33.000Z,27.9
2019-04-30T18:03:18.000Z,27.9
2019-04-30T18:04:18.000Z,27.9
2019-04-30T18:05:19.000Z,27.8
2019-04-30T18:07:19.000Z,27.8
2019-04-30T18:08:33.000Z,27.8
2019-04-30T18:10:19.000Z,27.9
2019-04-30T18:12:19.000Z,27.9
2019-04-30T18:13:33.000Z,27.9
2019-04-30T18:15:33.000Z,27.9
2019-04-30T18:16:33.000Z,28
2019-04-30T18:18:33.000Z,28.1
2019-04-30T18:20:18.000Z,28.2
2019-04-30T18:21:18.000Z,28.2
2019-04-30T18:22:18.000Z,28.2
2019-04-30T18:24:18.000Z,28
2019-04-30T18:25:33.000Z,27.9
2019-04-30T18:26:33.000Z,27.9
2019-04-30T18:28:18.000Z,28
2019-04-30T18:29:33.000Z,28
2019-04-30T18:31:33.000Z,28
2019-04-30T18:33:33.000Z,28
2019-04-30T18:35:20.000Z,28
2019-04-30T18:37:18.000Z,27.9
2019-04-30T18:38:33.000Z,27.9
2019-04-30T18:40:33.000Z,27.8
2019-04-30T18:42:18.000Z,27.8
2019-04-30T18:43:20.000Z,27.7
2019-04-30T18:45:18.000Z,27.5
2019-04-30T18:46:19.000Z,27.4
2019-04-30T18:48:19.000Z,27.4
2019-04-30T18:49:33.000Z,27.4
2019-04-30T18:51:18.000Z,27.5
2019-04-30T18:52:18.000Z,27.5
2019-04-30T18:53:33.000Z,27.5
2019-04-30T18:55:18.000Z,27.5
2019-04-30T18:56:18.000Z,27.5
2019-04-30T18:57:33.000Z,27.5
2019-04-30T18:59:18.000Z,27.5
2019-04-30T19:00:19.000Z,27.5
2019-04-30T19:01:33.000Z,27.4
2019-04-30T19:03:18.000Z,27.5
2019-04-30T19:04:18.000Z,27.6
2019-04-30T19:05:33.000Z,27.6
2019-04-30T19:07:33.000Z,27.7
2019-04-30T19:09:18.000Z,27.6
2019-04-30T19:10:33.000Z,27.6
2019-04-30T19:12:19.000Z,27.5
2019-04-30T19:14:19.000Z,27.5
2019-04-30T19:15:33.000Z,27.5
2019-04-30T19:17:18.000Z,27.4
2019-04-30T20:00:29.000Z,26.1
2019-04-30T20:01:44.000Z,26.1
2019-04-30T20:02:44.000Z,26.2
2019-04-30T20:03:44.000Z,26.5
2019-04-30T20:05:44.000Z,26.8
2019-04-30T20:06:44.000Z,27
2019-04-30T20:08:44.000Z,27.3
2019-04-30T20:10:44.000Z,27.5
2019-04-30T20:11:44.000Z,27.6
2019-04-30T20:13:29.000Z,27.7
2019-04-30T20:57:14.000Z,26
2019-04-30T20:59:00.000Z,26.3
2019-04-30T21:01:00.000Z,26.4
2019-04-30T21:02:14.000Z,26.5
2019-04-30T21:03:14.000Z,26.6
2019-04-30T21:05:14.000Z,26.9
2019-04-30T21:07:14.000Z,27.1
2019-04-30T21:08:14.000Z,27.2
2019-04-30T21:10:00.000Z,27.3
2019-04-30T21:11:14.000Z,27.4
2019-04-30T21:12:59.000Z,27.5
2019-04-30T21:14:14.000Z,27.5
2019-04-30T21:15:14.000Z,27.6
2019-04-30T21:17:14.000Z,27.7
2019-04-30T21:18:14.000Z,27.8
2019-04-30T21:20:00.000Z,27.9
2019-04-30T21:21:15.000Z,27.8
2019-04-30T21:22:15.000Z,27.7
2019-04-30T21:24:15.000Z,27.8
2019-04-30T21:25:59.000Z,27.8
2019-04-30T21:27:15.000Z,27.7
2019-04-30T21:28:59.000Z,27.7
2019-04-30T21:30:15.000Z,27.6
2019-04-30T21:32:00.000Z,27.6
2019-04-30T21:33:15.000Z,27.5
2019-04-30T21:35:15.000Z,27.4
2019-04-30T21:36:15.000Z,27.4
2019-04-30T21:38:00.000Z,27.5
2019-04-30T21:39:15.000Z,27.4
2019-04-30T21:40:15.000Z,27.4
2019-04-30T21:42:15.000Z,27.5
2019-04-30T21:43:15.000Z,27.6
2019-04-30T21:45:15.000Z,27.7
2019-04-30T21:47:15.000Z,27.7
2019-04-30T21:49:15.000Z,27.7
2019-04-30T21:50:15.000Z,27.7
2019-04-30T21:51:15.000Z,27.8
2019-04-30T21:52:15.000Z,27.9
2019-04-30T21:53:15.000Z,28
2019-04-30T21:55:15.000Z,28.1
2019-04-30T21:56:15.000Z,28.2
2019-04-30T21:58:15.000Z,28.2
2019-04-30T22:00:15.000Z,28.1
2019-04-30T22:01:15.000Z,28.1
2019-04-30T22:02:15.000Z,28.1
2019-04-30T22:03:15.000Z,28.2
2019-04-30T22:05:15.000Z,28.2
2019-04-30T22:06:15.000Z,28.2
2019-04-30T22:08:15.000Z,28.2
2019-04-30T22:10:15.000Z,28.1
2019-04-30T22:11:15.000Z,28.1
2019-04-30T22:12:59.000Z,28.1
2019-04-30T22:14:15.000Z,28.1
2019-04-30T22:15:15.000Z,28.1
2019-04-30T22:17:15.000Z,28.1
2019-04-30T22:18:15.000Z,28.2
2019-04-30T22:20:15.000Z,28.2
2019-04-30T22:21:59.000Z,28.2
2019-04-30T22:23:15.000Z,28.1
2019-04-30T22:25:15.000Z,28.1
2019-04-30T22:26:15.000Z,28.1
2019-04-30T22:27:15.000Z,28.2
2019-04-30T22:29:15.000Z,28.1
2019-04-30T22:31:15.000Z,28
2019-04-30T22:32:15.000Z,28
2019-04-30T22:34:15.000Z,28
2019-04-30T22:35:15.000Z,28
2019-04-30T22:37:15.000Z,28
2019-04-30T22:39:15.000Z,28
2019-04-30T22:41:15.000Z,28
2019-04-30T22:42:15.000Z,28
2019-04-30T22:44:15.000Z,28.1
2019-04-30T22:45:15.000Z,28.1
2019-04-30T22:47:00.000Z,28.1
2019-04-30T22:48:15.000Z,28.1
2019-04-30T22:49:15.000Z,28.1
2019-04-30T22:50:15.000Z,28.2
2019-04-30T22:52:15.000Z,28.1
2019-04-30T22:54:15.000Z,28.1
2019-04-30T22:55:15.000Z,28.1
2019-04-30T22:57:15.000Z,28.1
2019-04-30T22:58:15.000Z,28.1
2019-04-30T22:59:15.000Z,28.2
2019-04-30T23:00:15.000Z,28.2
2019-04-30T23:02:15.000Z,28.2
2019-04-30T23:03:15.000Z,28.2
2019-04-30T23:05:15.000Z,28.2
2019-04-30T23:07:15.000Z,28.1
2019-04-30T23:08:15.000Z,28
2019-04-30T23:10:00.000Z,28.1
2019-04-30T23:11:15.000Z,28
2019-04-30T23:13:15.000Z,28
2019-04-30T23:14:15.000Z,28
2019-04-30T23:16:15.000Z,28
2019-04-30T23:18:15.000Z,28
2019-04-30T23:20:15.000Z,27.9
2019-04-30T23:21:15.000Z,27.9
2019-04-30T23:23:15.000Z,27.9
2019-04-30T23:24:15.000Z,27.9
2019-04-30T23:25:15.000Z,28
2019-04-30T23:27:14.000Z,28
2019-04-30T23:28:14.000Z,28.1
2019-04-30T23:29:59.000Z,28.1
